Terminal Aerodrome Forecast
Issued by NWS Albuquerque, NM

Home | Current Version | Previous Version | Text Only | Print | Product List | Glossary On
Versions: 1 2 3 4 5 6 7 8 9 10 11 12 13
000
FTUS45 KABQ 211100
TAFABQ
TAF
KABQ 211140Z 2112/2212 10010KT P6SM FEW040 SCT200
     FM211400 10013G23KT P6SM SCT040 SCT100
     FM212100 12014G24KT P6SM VCSH BKN070 PROB30 2122/2204
      VRB18G30KT -TSRA BKN050CB BKN100
     FM220400 09018G28KT P6SM BKN060=

USA.gov is the U.S. government's official web portal to all federal, state and local government web resources and services.